Time;durP1;ratioP1;P1;durP2;ratioP2;P2;SDS_P1;SDS_P2;PMS_P1;PMS_P2;Temp;Humidity;BMP_temperature;BMP_pressure;BME280_temperature;BME280_humidity;BME280_pressure;Samples;Min_cycle;Max_cycle;Signal;HPM_P1;HPM_P2
2022/09/03 00:02:05;;;;;;;;;7.00;6.00;;;;;25.73;43.72;100428.22;5017185;28;45421;-43
2022/09/03 00:04:39;;;;;;;;;6.50;6.50;;;;;25.73;43.76;100437.00;5021098;28;45249;-43
2022/09/03 00:07:19;;;;;;;;;5.00;5.00;;;;;25.73;43.90;100433.50;5023123;28;45745;-50
2022/09/03 00:09:55;;;;;;;;;8.25;8.25;;;;;25.73;43.77;100434.34;5017227;28;45344;-45
2022/09/03 00:12:25;;;;;;;;;8.00;7.00;;;;;25.72;43.98;100432.66;5017805;28;45446;-44
2022/09/03 00:14:57;;;;;;;;;7.00;7.00;;;;;25.72;43.98;100426.53;5027866;28;48145;-47
2022/09/03 00:17:28;;;;;;;;;7.25;7.25;;;;;25.72;44.12;100421.22;5035583;28;45787;-43
2022/09/03 00:20:16;;;;;;;;;7.75;6.75;;;;;25.73;43.78;100422.91;5036897;28;45406;-44
2022/09/03 00:22:50;;;;;;;;;7.75;7.75;;;;;25.73;43.48;100422.91;5037133;28;45277;-48
2022/09/03 00:25:36;;;;;;;;;7.25;7.25;;;;;25.73;43.70;100415.75;5043697;28;46542;-42
2022/09/03 00:28:11;;;;;;;;;7.00;6.50;;;;;25.73;43.73;100428.22;5044479;28;45536;-42
2022/09/03 00:30:39;;;;;;;;;8.00;8.00;;;;;25.73;43.88;100423.72;5042549;28;45422;-42
2022/09/03 00:33:12;;;;;;;;;8.00;8.00;;;;;25.72;43.99;100419.38;5039786;28;45337;-42
2022/09/03 00:35:50;;;;;;;;;7.25;7.25;;;;;25.73;43.88;100422.91;5055249;28;46027;-44
2022/09/03 00:38:16;;;;;;;;;7.75;6.50;;;;;25.72;43.80;100427.34;5044479;28;45382;-46
2022/09/03 00:40:58;;;;;;;;;6.25;6.25;;;;;25.72;43.99;100416.72;5036412;28;45225;-47
2022/09/03 00:44:08;;;;;;;;;7.00;6.25;;;;;25.73;43.55;100413.09;5038538;28;45303;-51
2022/09/03 00:46:40;;;;;;;;;6.00;6.00;;;;;25.73;44.08;100417.59;5016560;28;46290;-43
2022/09/03 00:49:15;;;;;;;;;6.25;6.25;;;;;25.73;43.83;100409.63;5040474;28;45704;-46
2022/09/03 00:52:12;;;;;;;;;8.75;6.50;;;;;25.74;44.33;100424.59;5039973;28;45546;-48
2022/09/03 00:54:52;;;;;;;;;5.00;4.00;;;;;25.73;43.83;100433.50;5040506;28;45183;-48
2022/09/03 00:57:24;;;;;;;;;6.00;6.00;;;;;25.72;43.93;100431.84;5040965;28;46324;-46
2022/09/03 01:00:15;;;;;;;;;6.00;6.00;;;;;25.72;44.31;100426.53;5043868;28;45791;-45
2022/09/03 01:02:55;;;;;;;;;7.50;7.50;;;;;25.71;44.09;100430.97;5044878;28;45322;-55
2022/09/03 01:05:49;;;;;;;;;5.50;5.50;;;;;25.71;44.05;100435.44;5046188;28;45429;-43
2022/09/03 01:08:33;;;;;;;;;6.75;6.75;;;;;25.72;43.90;100445.09;5045821;28;46048;-44
2022/09/03 01:11:25;;;;;;;;;8.00;6.25;;;;;25.70;44.10;100433.75;5043442;28;45715;-44
2022/09/03 01:14:17;;;;;;;;;6.25;6.25;;;;;25.70;44.12;100437.25;5045414;28;45924;-43
2022/09/03 01:17:10;;;;;;;;;8.00;6.50;;;;;25.70;43.59;100431.13;5039138;28;45467;-48
2022/09/03 01:19:50;;;;;;;;;5.00;5.00;;;;;25.69;43.72;100434.72;5044337;28;47035;-44
2022/09/03 01:22:48;;;;;;;;;6.25;5.00;;;;;25.68;44.12;100425.94;5044553;28;45406;-42
2022/09/03 01:25:30;;;;;;;;;6.25;6.25;;;;;25.69;44.25;100437.38;5040345;28;45428;-42
2022/09/03 01:28:02;;;;;;;;;7.50;6.75;;;;;25.68;43.73;100433.91;5045167;28;45469;-43
2022/09/03 01:30:33;;;;;;;;;7.50;6.00;;;;;25.68;43.93;100431.25;5042125;28;46454;-51
2022/09/03 01:33:23;;;;;;;;;5.00;5.00;;;;;25.69;44.30;100429.41;5039595;28;45477;-50
2022/09/03 01:35:58;;;;;;;;;5.25;5.25;;;;;25.68;44.24;100431.25;5039105;28;45329;-47
2022/09/03 01:38:38;;;;;;;;;7.25;6.00;;;;;25.69;43.66;100429.41;5040203;28;45355;-42
2022/09/03 01:44:23;;;;;;;;;5.25;5.25;;;;;25.69;43.60;100435.56;5043709;28;45489;-41
2022/09/03 01:47:09;;;;;;;;;6.25;5.50;;;;;25.69;43.60;100429.41;5057674;28;44677;-46
2022/09/03 01:49:40;;;;;;;;;6.00;6.00;;;;;25.68;43.86;100433.03;5047748;28;45299;-43
2022/09/03 01:52:12;;;;;;;;;5.75;5.75;;;;;25.63;44.70;100434.25;5040127;28;46677;-47
2022/09/03 01:54:54;;;;;;;;;6.00;6.00;;;;;25.56;44.49;100422.50;5043418;28;45764;-41
2022/09/03 01:57:26;;;;;;;;;5.00;5.00;;;;;25.49;44.73;100425.78;5038942;28;45333;-42
2022/09/03 02:00:09;;;;;;;;;7.50;6.00;;;;;25.43;44.96;100424.47;5018576;28;45629;-45
2022/09/03 02:02:35;;;;;;;;;6.00;6.00;;;;;25.39;45.34;100429.16;5019292;28;47451;-47
2022/09/03 02:05:11;;;;;;;;;5.25;5.00;;;;;25.35;45.65;100429.53;5019289;28;45429;-42
2022/09/03 02:07:46;;;;;;;;;7.00;6.25;;;;;25.30;45.95;100435.22;5018725;28;45292;-44
2022/09/03 02:10:18;;;;;;;;;7.25;7.25;;;;;25.26;45.33;100432.00;5019249;28;45295;-45
2022/09/03 02:12:58;;;;;;;;;7.25;7.25;;;;;25.23;45.83;100437.53;5023910;28;46231;-50
2022/09/03 02:15:25;;;;;;;;;7.00;7.00;;;;;25.21;46.06;100434.16;5039069;28;45629;-48
2022/09/03 02:17:55;;;;;;;;;8.25;6.00;;;;;25.17;45.75;100424.81;5039467;28;45747;-46
2022/09/03 02:20:24;;;;;;;;;9.75;7.00;;;;;25.15;46.12;100432.03;5040531;28;45400;-48
2022/09/03 02:22:51;;;;;;;;;5.50;5.50;;;;;25.12;46.63;100429.63;5051436;28;47479;-45
2022/09/03 02:25:17;;;;;;;;;6.75;6.00;;;;;25.09;46.87;100427.22;5045154;28;45426;-43
2022/09/03 02:27:43;;;;;;;;;7.00;7.00;;;;;25.07;46.34;100427.34;5037752;28;45359;-42
2022/09/03 02:30:09;;;;;;;;;7.25;6.00;;;;;25.06;46.56;100427.47;5040661;28;44912;-42
2022/09/03 02:32:35;;;;;;;;;7.25;6.25;;;;;25.05;46.54;100428.44;5045525;28;46418;-43
2022/09/03 02:35:00;;;;;;;;;10.00;6.00;;;;;25.04;46.56;100432.06;5041646;28;45326;-42
2022/09/03 02:37:26;;;;;;;;;8.00;8.00;;;;;25.01;46.70;100428.69;5045151;28;45390;-42
2022/09/03 02:39:51;;;;;;;;;8.00;8.00;;;;;25.00;46.84;100432.31;5056648;28;44823;-44
2022/09/03 02:42:17;;;;;;;;;8.00;7.25;;;;;25.00;47.44;100447.38;5042509;28;47378;-46
2022/09/03 02:44:55;;;;;;;;;8.00;8.00;;;;;24.98;47.22;100442.19;5038647;28;45383;-51
2022/09/03 02:47:21;;;;;;;;;8.50;8.50;;;;;24.96;47.23;100436.19;5038134;28;45192;-46
2022/09/03 02:49:48;;;;;;;;;8.25;8.25;;;;;24.95;47.37;100437.16;5042446;28;45473;-46
2022/09/03 02:52:14;;;;;;;;;10.50;9.00;;;;;24.95;47.84;100438.94;5040868;28;46186;-42
2022/09/03 02:54:40;;;;;;;;;7.25;7.25;;;;;24.95;48.12;100438.94;5037706;28;45337;-42
2022/09/03 02:57:11;;;;;;;;;11.00;7.75;;;;;24.91;47.33;100430.41;5037723;28;45699;-42
2022/09/03 02:59:38;;;;;;;;;8.00;8.00;;;;;24.90;47.84;100438.50;5040105;28;45299;-42
2022/09/03 03:02:04;;;;;;;;;7.50;7.50;;;;;24.88;48.08;100424.50;5044373;28;45583;-46
2022/09/03 03:04:30;;;;;;;;;10.00;6.25;;;;;24.85;47.88;100426.44;5045368;28;45259;-47
2022/09/03 03:06:55;;;;;;;;;8.75;8.25;;;;;24.86;47.81;100429.91;5038331;28;45258;-44
2022/09/03 03:09:21;;;;;;;;;7.50;6.75;;;;;24.88;47.92;100437.75;5038469;28;45323;-51
2022/09/03 03:11:48;;;;;;;;;8.25;8.25;;;;;24.87;48.51;100434.25;5019250;28;46901;-44
2022/09/03 03:14:14;;;;;;;;;9.50;9.50;;;;;24.85;48.42;100433.56;5036347;28;46347;-45
2022/09/03 03:16:39;;;;;;;;;9.25;9.25;;;;;24.84;48.70;100434.53;5038091;28;45173;-45
2022/09/03 03:19:04;;;;;;;;;11.25;9.75;;;;;24.83;48.72;100430.19;5040889;28;45145;-50
2022/09/03 03:21:30;;;;;;;;;9.00;8.00;;;;;24.82;48.96;100429.31;5045414;28;45993;-55
2022/09/03 03:23:55;;;;;;;;;9.00;9.00;;;;;24.80;48.34;100431.28;5049188;28;45235;-49
2022/09/03 03:26:21;;;;;;;;;7.50;7.50;;;;;24.80;49.00;100435.72;5041063;28;45207;-50
2022/09/03 03:28:55;;;;;;;;;8.00;8.00;;;;;24.79;48.79;100434.03;5037695;28;45508;-44
2022/09/03 03:31:21;;;;;;;;;8.25;7.25;;;;;24.78;49.23;100433.22;5037205;28;45499;-49
2022/09/03 03:33:52;;;;;;;;;7.25;7.25;;;;;24.77;48.79;100436.81;5045220;28;45224;-44
2022/09/03 03:36:18;;;;;;;;;8.00;8.00;;;;;24.76;48.52;100432.47;5043325;28;45385;-46
2022/09/03 03:38:44;;;;;;;;;11.00;10.00;;;;;24.75;48.73;100427.31;5038270;28;45401;-42
2022/09/03 03:41:12;;;;;;;;;12.25;9.50;;;;;24.74;48.80;100423.81;5037443;28;46205;-45
2022/09/03 03:43:38;;;;;;;;;10.75;9.75;;;;;24.74;48.90;100425.63;5022052;28;45693;-42
2022/09/03 03:46:04;;;;;;;;;9.50;9.50;;;;;24.74;49.08;100420.31;5022775;28;45476;-41
2022/09/03 03:48:30;;;;;;;;;9.75;8.75;;;;;24.72;49.07;100417.78;5020228;28;45368;-41
2022/09/03 03:51:00;;;;;;;;;9.00;8.75;;;;;24.71;49.11;100418.75;5016582;28;46476;-46
2022/09/03 03:53:25;;;;;;;;;8.25;8.25;;;;;24.68;49.73;100419.84;5015727;28;45704;-42
2022/09/03 03:55:58;;;;;;;;;9.75;9.75;;;;;24.69;49.06;100420.69;5015991;28;45510;-44
2022/09/03 03:58:23;;;;;;;;;11.00;10.50;;;;;24.67;49.29;100417.28;5036545;28;45790;-42
2022/09/03 04:00:50;;;;;;;;;10.25;8.50;;;;;24.64;49.38;100410.41;5036978;28;45428;-42
2022/09/03 04:03:16;;;;;;;;;9.75;8.50;;;;;24.65;49.63;100422.69;5039467;28;45326;-42
2022/09/03 04:05:41;;;;;;;;;9.75;9.75;;;;;24.64;49.62;100413.06;5043375;28;45409;-41
2022/09/03 04:08:07;;;;;;;;;16.50;15.50;;;;;24.63;49.41;100408.75;5044667;28;45529;-44
2022/09/03 04:10:32;;;;;;;;;13.50;12.50;;;;;24.62;49.33;100417.66;5044941;28;54513;-42
2022/09/03 04:12:57;;;;;;;;;17.75;16.25;;;;;24.61;50.26;100407.16;5040246;28;45399;-45
2022/09/03 04:15:23;;;;;;;;;29.00;26.25;;;;;24.63;49.55;100421.13;5049794;28;44741;-41
2022/09/03 04:17:48;;;;;;;;;34.50;32.00;;;;;24.66;49.48;100413.78;5050159;28;45452;-43
2022/09/03 04:20:14;;;;;;;;;34.50;31.75;;;;;24.71;49.38;100426.69;5045995;28;46882;-41
2022/09/03 04:22:39;;;;;;;;;33.75;31.50;;;;;24.76;49.79;100421.03;5047356;28;45264;-41
2022/09/03 04:25:04;;;;;;;;;29.00;27.33;;;;;24.78;49.88;100421.75;5047505;28;45378;-41
2022/09/03 04:27:30;;;;;;;;;29.50;27.50;;;;;24.82;49.16;100418.72;5042405;28;45315;-41
2022/09/03 04:29:55;;;;;;;;;27.00;26.75;;;;;24.86;49.37;100416.66;5040497;28;45957;-41
2022/09/03 04:35:04;;;;;;;;;30.25;24.25;;;;;24.96;49.10;100414.97;5040641;28;45424;-43
2022/09/03 04:37:31;;;;;;;;;28.25;24.50;;;;;25.00;49.39;100419.06;5041351;28;45449;-41
2022/09/03 04:39:57;;;;;;;;;20.25;20.25;;;;;25.06;49.48;100424.84;5046125;28;46791;-41
2022/09/03 04:42:23;;;;;;;;;18.50;16.75;;;;;25.07;48.90;100418.56;5051504;28;45413;-41
2022/09/03 04:44:48;;;;;;;;;19.50;18.75;;;;;25.05;49.52;100423.97;5056038;28;45372;-41
2022/09/03 04:47:14;;;;;;;;;19.50;17.50;;;;;25.03;48.83;100412.66;5041503;28;45326;-42
2022/09/03 04:49:39;;;;;;;;;20.25;19.50;;;;;25.04;48.76;100421.47;5039627;28;46301;-41
2022/09/03 04:52:05;;;;;;;;;22.25;19.25;;;;;25.07;48.58;100422.03;5038304;28;45429;-42
2022/09/03 04:54:30;;;;;;;;;20.25;18.50;;;;;25.09;48.91;100424.56;5038687;28;45365;-46
2022/09/03 04:56:55;;;;;;;;;17.25;16.75;;;;;25.07;49.21;100424.69;5038087;28;45778;-42
2022/09/03 04:59:21;;;;;;;;;18.50;15.00;;;;;25.07;49.10;100421.22;5044614;28;47167;-41
2022/09/03 05:01:46;;;;;;;;;20.00;17.25;;;;;25.07;49.02;100431.81;5045006;28;45967;-44
2022/09/03 05:04:12;;;;;;;;;17.00;14.75;;;;;25.07;48.52;100431.81;5042451;28;47741;-41
2022/09/03 05:06:37;;;;;;;;;16.00;15.50;;;;;25.08;48.77;100433.50;5045086;28;45370;-44
2022/09/03 05:09:04;;;;;;;;;16.75;12.25;;;;;25.08;49.04;100429.03;5043604;28;45231;-50
2022/09/03 05:11:29;;;;;;;;;17.75;14.75;;;;;25.11;48.70;100433.25;5038114;28;45525;-42
2022/09/03 05:13:57;;;;;;;;;14.25;14.25;;;;;25.13;48.95;100428.66;5039719;28;45358;-41
2022/09/03 05:16:24;;;;;;;;;15.00;12.50;;;;;25.14;48.48;100438.31;5039866;28;45315;-41
2022/09/03 05:18:55;;;;;;;;;13.00;13.00;;;;;25.11;48.84;100434.09;5037739;28;47049;-40
2022/09/03 05:21:21;;;;;;;;;14.50;14.50;;;;;25.12;48.81;100441.09;5039166;28;45387;-41
2022/09/03 05:23:51;;;;;;;;;12.00;12.00;;;;;25.11;48.33;100428.78;5038688;28;45318;-45
2022/09/03 05:26:23;;;;;;;;;10.25;10.25;;;;;25.12;48.80;100429.63;5037553;28;45280;-48
2022/09/03 05:28:52;;;;;;;;;11.50;11.50;;;;;25.10;48.97;100434.19;5037217;28;46680;-48
2022/09/03 05:31:21;;;;;;;;;11.25;10.50;;;;;25.08;48.60;100433.50;5039679;28;45799;-49
2022/09/03 05:33:52;;;;;;;;;10.75;9.00;;;;;25.06;48.59;100436.28;5044394;28;45426;-46
2022/09/03 05:36:22;;;;;;;;;10.25;10.25;;;;;25.06;48.52;100436.28;5043786;28;45523;-48
2022/09/03 05:38:48;;;;;;;;;9.50;9.00;;;;;25.05;48.83;100437.22;5047900;28;46227;-50
2022/09/03 05:41:15;;;;;;;;;11.00;10.00;;;;;25.04;48.99;100442.66;5048934;28;46455;-42
2022/09/03 05:43:41;;;;;;;;;11.00;10.50;;;;;25.04;48.74;100442.66;5046780;28;45290;-42
2022/09/03 05:46:12;;;;;;;;;10.75;9.50;;;;;25.05;48.83;100445.19;5044522;28;45498;-44
2022/09/03 05:48:39;;;;;;;;;11.00;10.00;;;;;25.04;48.63;100447.97;5046183;28;46187;-46
2022/09/03 05:51:15;;;;;;;;;10.50;10.00;;;;;25.03;48.29;100449.75;5039256;28;45696;-42
2022/09/03 05:53:42;;;;;;;;;11.00;9.00;;;;;25.01;49.15;100449.91;5038637;28;45337;-45
2022/09/03 05:56:18;;;;;;;;;9.00;8.00;;;;;25.00;48.56;100456.16;5037490;28;45280;-43
2022/09/03 05:58:49;;;;;;;;;9.25;9.25;;;;;25.01;48.57;100452.56;5037550;28;45682;-41
2022/09/03 06:01:27;;;;;;;;;9.00;9.00;;;;;25.05;48.72;100461.09;5036510;28;45951;-44
2022/09/03 06:03:56;;;;;;;;;9.00;8.00;;;;;24.99;49.00;100462.44;5036131;28;45206;-47
2022/09/03 06:06:25;;;;;;;;;10.00;10.00;;;;;24.99;48.74;100483.66;5036166;28;45438;-49
2022/09/03 06:08:55;;;;;;;;;8.00;8.00;;;;;25.00;48.43;100482.69;5036812;28;45373;-45
2022/09/03 06:11:25;;;;;;;;;9.75;9.75;;;;;25.03;48.74;100483.41;5036289;28;45390;-46
2022/09/03 06:13:51;;;;;;;;;10.00;7.75;;;;;25.05;48.86;100486.78;5038936;28;45229;-45
2022/09/03 06:16:16;;;;;;;;;7.50;7.50;;;;;25.03;48.71;100489.53;5040311;28;45616;-41
2022/09/03 06:18:41;;;;;;;;;8.50;8.50;;;;;25.05;48.35;100481.47;5044968;28;46258;-42
2022/09/03 06:21:06;;;;;;;;;7.75;7.75;;;;;25.05;48.86;100481.47;5044818;28;45282;-43
2022/09/03 06:23:34;;;;;;;;;9.50;9.25;;;;;25.05;48.84;100492.91;5039481;28;45394;-44
2022/09/03 06:26:08;;;;;;;;;8.50;7.75;;;;;25.04;48.49;100487.75;5037145;28;45628;-41
2022/09/03 06:28:36;;;;;;;;;9.50;7.50;;;;;25.03;48.38;100494.84;5044097;28;45231;-42
2022/09/03 06:31:04;;;;;;;;;10.75;9.75;;;;;25.01;48.24;100487.03;5043195;28;45307;-41
2022/09/03 06:33:32;;;;;;;;;8.75;8.00;;;;;24.98;48.94;100487.25;5039081;28;45377;-41
2022/09/03 06:35:59;;;;;;;;;9.00;9.00;;;;;24.97;48.63;100490.88;5038510;28;45481;-40
2022/09/03 06:38:27;;;;;;;;;8.25;7.25;;;;;24.97;48.47;100498.81;5039527;28;46517;-43
2022/09/03 06:41:02;;;;;;;;;13.00;6.75;;;;;24.97;48.34;100504.13;5036689;28;45730;-41
2022/09/03 06:43:31;;;;;;;;;7.75;6.75;;;;;24.98;48.40;100497.84;5039606;28;45401;-41
2022/09/03 06:46:06;;;;;;;;;6.50;6.50;;;;;24.98;48.64;100489.91;5046363;28;45560;-45
2022/09/03 06:48:33;;;;;;;;;10.00;8.00;;;;;24.99;48.84;100496.06;5044437;28;45412;-42
2022/09/03 06:51:01;;;;;;;;;7.50;7.50;;;;;24.99;48.59;100493.41;5040841;28;45736;-48
2022/09/03 06:53:30;;;;;;;;;8.75;7.25;;;;;25.01;48.11;100499.44;5038449;28;45291;-46
2022/09/03 06:56:00;;;;;;;;;7.00;7.00;;;;;25.03;48.30;100501.97;5038463;28;45912;-51
2022/09/03 06:58:36;;;;;;;;;6.25;6.25;;;;;25.06;48.29;100501.72;5043711;28;45449;-50
2022/09/03 07:01:26;;;;;;;;;8.25;7.50;;;;;25.08;47.93;100505.09;5040460;28;45685;-48
2022/09/03 07:03:55;;;;;;;;;7.25;7.25;;;;;25.09;48.31;100504.97;5038462;28;45330;-48
2022/09/03 07:06:21;;;;;;;;;7.25;6.50;;;;;25.08;48.06;100494.50;5038412;28;45327;-48
2022/09/03 07:08:47;;;;;;;;;8.00;6.75;;;;;25.11;47.90;100508.34;5036283;28;46606;-51
2022/09/03 07:11:18;;;;;;;;;6.00;6.00;;;;;25.12;48.36;100498.56;5038892;28;45311;-42
2022/09/03 07:13:48;;;;;;;;;6.00;6.00;;;;;25.13;47.94;100508.22;5039986;28;45443;-49
2022/09/03 07:16:17;;;;;;;;;9.00;9.00;;;;;25.13;48.24;100501.13;5041767;28;45378;-49
2022/09/03 07:18:43;;;;;;;;;7.75;7.75;;;;;25.15;48.34;100498.34;5042815;28;46367;-45
2022/09/03 07:21:13;;;;;;;;;9.00;7.50;;;;;25.15;48.21;100507.13;5039375;28;45395;-44
2022/09/03 07:23:40;;;;;;;;;7.00;7.00;;;;;25.15;48.23;100503.63;5040036;28;45200;-41
2022/09/03 07:26:12;;;;;;;;;7.00;6.25;;;;;25.15;48.36;100504.47;5040552;28;45447;-41
2022/09/03 07:28:39;;;;;;;;;6.50;6.50;;;;;25.17;47.94;100501.72;5036684;28;46265;-43
2022/09/03 07:31:14;;;;;;;;;6.25;6.25;;;;;25.21;48.30;100504.94;5037853;28;45880;-47
2022/09/03 07:33:40;;;;;;;;;8.25;6.50;;;;;25.21;47.99;100513.72;5037954;28;45358;-45
2022/09/03 07:36:08;;;;;;;;;7.25;6.50;;;;;25.21;47.73;100519.03;5038507;28;45405;-48
2022/09/03 07:38:35;;;;;;;;;6.75;6.50;;;;;25.22;47.56;100517.25;5042946;28;46376;-44
2022/09/03 07:41:03;;;;;;;;;9.00;6.25;;;;;25.23;47.85;100522.41;5043073;28;45760;-41
2022/09/03 07:43:33;;;;;;;;;5.75;5.75;;;;;25.24;47.79;100521.44;5040639;28;45291;-46
2022/09/03 07:45:58;;;;;;;;;8.00;7.00;;;;;25.25;47.82;100527.59;5037054;28;45548;-48
2022/09/03 07:48:23;;;;;;;;;5.25;5.25;;;;;25.23;47.31;100525.06;5037563;28;47673;-49
2022/09/03 07:50:49;;;;;;;;;8.25;6.25;;;;;25.23;48.13;100527.72;5037952;28;45381;-51
2022/09/03 07:53:18;;;;;;;;;8.00;8.00;;;;;25.24;47.87;100534.72;5039154;28;45338;-48
2022/09/03 07:55:43;;;;;;;;;6.25;6.25;;;;;25.23;47.58;100533.03;5041285;28;45258;-44
2022/09/03 07:58:13;;;;;;;;;8.50;7.25;;;;;25.23;47.62;100527.72;5042673;28;46257;-45
2022/09/03 08:00:38;;;;;;;;;6.75;6.50;;;;;25.24;47.51;100532.06;5037858;28;45457;-45
2022/09/03 08:03:07;;;;;;;;;6.00;6.00;;;;;25.25;47.46;100531.09;5045667;28;44766;-46
2022/09/03 08:05:34;;;;;;;;;9.00;6.75;;;;;25.23;47.63;100525.06;5052182;28;44940;-49
2022/09/03 08:08:00;;;;;;;;;8.00;7.00;;;;;25.24;47.58;100529.41;5048077;28;47033;-46
2022/09/03 08:10:29;;;;;;;;;6.00;6.00;;;;;25.26;47.66;100532.78;5035207;28;45392;-46
2022/09/03 08:12:55;;;;;;;;;5.00;5.00;;;;;25.26;47.48;100532.78;5050082;28;44753;-53
2022/09/03 08:15:20;;;;;;;;;5.00;5.00;;;;;25.29;47.31;100535.19;5051968;28;44924;-43
2022/09/03 08:17:45;;;;;;;;;5.00;5.00;;;;;25.32;47.79;100536.75;5053171;28;60598;-47
2022/09/03 08:20:10;;;;;;;;;5.50;5.50;;;;;25.34;47.67;100548.09;5054403;28;53050;-49
2022/09/03 08:22:36;;;;;;;;;6.00;6.00;;;;;25.36;47.26;100548.78;5046617;28;45327;-46
2022/09/03 08:25:02;;;;;;;;;5.25;5.25;;;;;25.36;47.35;100554.09;5038945;28;45488;-42
2022/09/03 08:27:27;;;;;;;;;3.25;3.25;;;;;25.36;47.78;100553.25;5037273;28;45500;-46
2022/09/03 08:29:53;;;;;;;;;5.25;5.25;;;;;25.36;47.18;100551.44;5035471;28;45396;-42
2022/09/03 08:32:19;;;;;;;;;3.25;3.00;;;;;25.35;47.24;100548.91;5038197;28;45192;-42
2022/09/03 08:34:45;;;;;;;;;5.50;4.50;;;;;25.35;47.34;100556.88;5037557;28;45522;-41
2022/09/03 08:37:11;;;;;;;;;7.00;5.00;;;;;25.38;47.12;100567.25;5038317;28;46025;-41
2022/09/03 08:39:36;;;;;;;;;5.75;5.75;;;;;25.38;47.32;100567.25;5041581;28;45341;-44
2022/09/03 08:42:24;;;;;;;;;6.00;6.00;;;;;25.39;47.09;100566.28;5043395;28;45314;-41
2022/09/03 08:44:55;;;;;;;;;4.50;4.50;;;;;25.40;47.56;100565.31;5036396;28;45525;-41
2022/09/03 08:47:39;;;;;;;;;6.75;6.00;;;;;25.40;47.27;100566.19;5042029;28;45457;-41
2022/09/03 08:50:23;;;;;;;;;5.75;5.25;;;;;25.42;47.62;100569.56;5052288;28;45309;-42
2022/09/03 08:52:53;;;;;;;;;5.25;5.25;;;;;25.43;46.97;100584.50;5042724;28;45532;-42
2022/09/03 08:55:41;;;;;;;;;4.50;4.50;;;;;25.41;47.51;100580.31;5041080;28;45484;-45
2022/09/03 08:58:17;;;;;;;;;5.75;5.75;;;;;25.40;47.00;100575.94;5039677;28;46191;-46
2022/09/03 09:00:51;;;;;;;;;3.25;3.25;;;;;25.39;47.18;100580.38;5035948;28;45349;-43
2022/09/03 09:03:32;;;;;;;;;5.50;5.00;;;;;25.38;47.41;100580.50;5036067;28;45330;-42
2022/09/03 09:06:15;;;;;;;;;6.25;6.25;;;;;25.38;47.64;100585.81;5038939;28;45292;-41
2022/09/03 09:08:59;;;;;;;;;5.75;4.50;;;;;25.38;47.63;100584.00;5037325;28;46140;-46
2022/09/03 09:11:50;;;;;;;;;6.00;5.00;;;;;25.40;47.12;100581.25;5039358;28;45317;-45
2022/09/03 09:14:29;;;;;;;;;5.00;5.00;;;;;25.42;47.24;100580.19;5055563;28;45393;-46
2022/09/03 09:17:13;;;;;;;;;6.25;5.25;;;;;25.43;47.66;100584.50;5054568;28;45876;-49
2022/09/03 09:20:02;;;;;;;;;4.75;4.75;;;;;25.43;47.08;100581.00;5041190;28;46049;-46
2022/09/03 09:22:40;;;;;;;;;5.75;4.25;;;;;25.46;47.34;100583.41;5037929;28;45239;-41
2022/09/03 09:25:19;;;;;;;;;5.75;5.75;;;;;25.48;47.13;100581.50;5039897;28;45460;-41
2022/09/03 09:27:59;;;;;;;;;4.00;4.00;;;;;25.51;47.52;100577.75;5039005;28;45234;-49
2022/09/03 09:30:26;;;;;;;;;2.25;2.25;;;;;25.51;47.38;100575.94;5039729;28;45459;-43
2022/09/03 09:32:51;;;;;;;;;4.50;4.50;;;;;25.54;47.21;100572.19;5040666;28;46150;-41
2022/09/03 09:35:18;;;;;;;;;5.00;5.00;;;;;25.53;46.74;100581.94;5046364;28;45268;-41
2022/09/03 09:37:49;;;;;;;;;6.00;6.00;;;;;25.54;47.30;100586.28;5040549;28;45438;-46
2022/09/03 09:40:32;;;;;;;;;5.25;4.00;;;;;25.55;47.03;100587.97;5039966;28;46447;-42
2022/09/03 09:43:15;;;;;;;;;6.25;5.25;;;;;25.55;47.47;100584.50;5042539;28;45347;-42
2022/09/03 09:45:52;;;;;;;;;4.25;4.25;;;;;25.55;47.68;100587.16;5037174;28;45394;-42
2022/09/03 09:48:36;;;;;;;;;8.00;6.25;;;;;25.52;47.50;100585.56;5039823;28;45374;-48
2022/09/03 09:51:09;;;;;;;;;4.25;4.25;;;;;25.52;46.87;100590.03;5038343;28;45424;-44
2022/09/03 09:53:35;;;;;;;;;4.25;4.25;;;;;25.52;47.24;100590.03;5035803;28;45280;-45
2022/09/03 09:56:03;;;;;;;;;5.00;5.00;;;;;25.52;47.25;100592.69;5039231;28;45368;-52
2022/09/03 09:58:31;;;;;;;;;5.75;5.75;;;;;25.51;47.13;100589.22;5038869;28;45398;-48
2022/09/03 10:01:13;;;;;;;;;4.50;4.50;;;;;25.52;47.49;100593.53;5037161;28;47281;-51
2022/09/03 10:03:54;;;;;;;;;2.00;2.00;;;;;25.54;47.47;100594.25;5040667;28;45287;-47
2022/09/03 10:09:18;;;;;;;;;5.50;5.50;;;;;25.59;47.25;100602.69;5042519;28;45457;-49
2022/09/03 10:11:54;;;;;;;;;5.00;5.00;;;;;25.61;47.03;100599.91;5044266;28;48807;-53
2022/09/03 10:14:31;;;;;;;;;5.00;5.00;;;;;25.60;46.80;100607.03;5051175;28;45817;-44
2022/09/03 10:17:09;;;;;;;;;4.50;4.50;;;;;25.61;47.57;100606.06;5046189;28;44887;-52
2022/09/03 10:22:54;;;;;;;;;4.00;4.00;;;;;25.59;46.77;100602.69;5037451;28;45642;-43
2022/09/03 10:25:21;;;;;;;;;4.25;4.00;;;;;25.58;47.16;100606.31;5038245;28;45326;-43
2022/09/03 10:27:46;;;;;;;;;3.25;3.25;;;;;25.58;47.07;100614.28;5038764;28;45488;-41
2022/09/03 10:30:15;;;;;;;;;4.50;4.50;;;;;25.58;47.30;100616.94;5038884;28;45575;-41
2022/09/03 10:33:01;;;;;;;;;5.25;4.00;;;;;25.59;47.00;100618.63;5038169;28;45374;-41
2022/09/03 10:35:33;;;;;;;;;4.25;4.25;;;;;25.59;47.37;100618.63;5039243;28;45658;-44
2022/09/03 10:37:59;;;;;;;;;6.00;5.00;;;;;25.59;47.10;100625.72;5041837;28;45245;-41
2022/09/03 10:40:43;;;;;;;;;4.00;4.00;;;;;25.58;47.02;100626.69;5039710;28;45358;-46
2022/09/03 10:43:17;;;;;;;;;5.00;5.00;;;;;25.57;47.03;100630.34;5038752;28;45408;-47
2022/09/03 10:45:42;;;;;;;;;3.50;3.50;;;;;25.57;47.13;100630.34;5038388;28;45458;-44
2022/09/03 10:48:19;;;;;;;;;4.00;4.00;;;;;25.55;47.17;100627.78;5039962;28;45342;-43
2022/09/03 10:50:55;;;;;;;;;4.25;4.25;;;;;25.56;47.31;100624.16;5047445;28;45671;-44
2022/09/03 10:53:42;;;;;;;;;4.00;4.00;;;;;25.56;46.79;100628.63;5051964;28;46609;-45
2022/09/03 10:56:17;;;;;;;;;4.50;4.00;;;;;25.56;47.12;100624.16;5039391;28;45477;-43
2022/09/03 10:58:59;;;;;;;;;3.75;3.75;;;;;25.56;46.60;100621.50;5037718;28;45548;-48
2022/09/03 11:01:52;;;;;;;;;6.25;5.00;;;;;25.59;47.23;100617.75;5038005;28;45248;-42
2022/09/03 11:04:43;;;;;;;;;5.00;5.00;;;;;25.60;46.50;100622.09;5021380;28;46456;-44
2022/09/03 11:07:12;;;;;;;;;5.00;5.00;;;;;25.62;46.57;100615.72;5019640;28;45419;-42
2022/09/03 11:09:53;;;;;;;;;3.50;3.00;;;;;25.65;46.87;100616.41;5017396;28;45255;-45
2022/09/03 11:12:25;;;;;;;;;3.25;3.25;;;;;25.67;46.99;100610.03;5017843;28;45502;-43
2022/09/03 11:15:02;;;;;;;;;6.25;5.25;;;;;25.69;46.88;100607.25;5017186;28;47134;-46
2022/09/03 11:17:35;;;;;;;;;4.75;4.75;;;;;25.71;46.30;100605.31;5037138;28;45645;-46
2022/09/03 11:20:17;;;;;;;;;4.00;4.00;;;;;25.70;46.18;100607.13;5038328;28;45655;-43
2022/09/03 11:22:44;;;;;;;;;4.00;4.00;;;;;25.72;46.10;100609.66;5036801;28;45307;-46
2022/09/03 11:25:13;;;;;;;;;3.00;3.00;;;;;25.72;46.62;100615.81;5037182;28;47030;-48
2022/09/03 11:27:42;;;;;;;;;5.75;4.25;;;;;25.73;46.56;100619.31;5035904;28;45790;-42
2022/09/03 11:30:13;;;;;;;;;4.00;4.00;;;;;25.73;46.75;100620.16;5039379;28;45279;-41
2022/09/03 11:32:39;;;;;;;;;4.25;4.25;;;;;25.75;46.41;100612.03;5047345;28;45409;-40
2022/09/03 11:35:22;;;;;;;;;3.75;3.75;;;;;25.74;46.44;100611.22;5042082;28;46346;-41
2022/09/03 11:38:02;;;;;;;;;5.00;5.00;;;;;25.74;45.96;100610.38;5041493;28;45337;-45
2022/09/03 11:40:42;;;;;;;;;4.00;4.00;;;;;25.73;46.33;100614.00;5043179;28;45403;-41
2022/09/03 11:43:25;;;;;;;;;3.50;3.50;;;;;25.73;46.58;100614.00;5045257;28;45180;-40
2022/09/03 11:46:02;;;;;;;;;5.25;5.25;;;;;25.71;46.01;100611.47;5053985;28;45505;-43
2022/09/03 11:49:10;;;;;;;;;4.25;4.25;;;;;25.72;45.95;100605.19;5045742;28;45173;-46
2022/09/03 11:51:40;;;;;;;;;3.00;3.00;;;;;25.73;46.45;100606.03;4975374;28;45474;-42
2022/09/03 11:54:11;;;;;;;;;3.00;3.00;;;;;25.73;46.11;100614.00;5029561;28;45552;-42
2022/09/03 11:56:37;;;;;;;;;3.25;3.25;;;;;25.72;46.08;100615.81;5035542;28;45547;-42